sensor_id;sensor_type;location;lat;lon;timestamp;P1;durP1;ratioP1;P2;durP2;ratioP2
76403;SDS011;65232;48.358;2.122;2023-01-30T00:00:17;19.05;;;12.80;;
76403;SDS011;65232;48.358;2.122;2023-01-30T00:00:43;19.75;;;12.95;;
76403;SDS011;65232;48.358;2.122;2023-01-30T00:01:11;17.83;;;12.95;;
76403;SDS011;65232;48.358;2.122;2023-01-30T00:01:40;17.00;;;12.63;;
76403;SDS011;65232;48.358;2.122;2023-01-30T00:02:07;17.98;;;12.88;;
76403;SDS011;65232;48.358;2.122;2023-01-30T00:02:33;20.95;;;14.25;;
76403;SDS011;65232;48.358;2.122;2023-01-30T00:02:58;21.33;;;13.60;;
76403;SDS011;65232;48.358;2.122;2023-01-30T00:03:24;19.67;;;11.95;;
76403;SDS011;65232;48.358;2.122;2023-01-30T00:03:50;18.67;;;12.32;;
76403;SDS011;65232;48.358;2.122;2023-01-30T00:04:15;17.92;;;12.13;;
76403;SDS011;65232;48.358;2.122;2023-01-30T00:04:41;19.65;;;13.25;;
76403;SDS011;65232;48.358;2.122;2023-01-30T00:05:06;19.25;;;12.95;;
76403;SDS011;65232;48.358;2.122;2023-01-30T00:05:32;18.50;;;13.10;;
76403;SDS011;65232;48.358;2.122;2023-01-30T00:05:58;22.25;;;13.70;;
76403;SDS011;65232;48.358;2.122;2023-01-30T00:06:23;18.75;;;13.65;;
76403;SDS011;65232;48.358;2.122;2023-01-30T00:06:49;20.15;;;13.50;;
76403;SDS011;65232;48.358;2.122;2023-01-30T00:07:14;19.20;;;13.63;;
76403;SDS011;65232;48.358;2.122;2023-01-30T00:07:40;18.30;;;13.63;;
76403;SDS011;65232;48.358;2.122;2023-01-30T00:08:05;19.88;;;13.27;;
76403;SDS011;65232;48.358;2.122;2023-01-30T00:08:31;20.73;;;12.90;;
76403;SDS011;65232;48.358;2.122;2023-01-30T00:08:57;21.40;;;13.45;;
76403;SDS011;65232;48.358;2.122;2023-01-30T00:09:22;21.20;;;13.25;;
76403;SDS011;65232;48.358;2.122;2023-01-30T00:09:48;21.30;;;13.27;;
76403;SDS011;65232;48.358;2.122;2023-01-30T00:10:13;19.35;;;13.93;;
76403;SDS011;65232;48.358;2.122;2023-01-30T00:10:39;20.33;;;13.30;;
76403;SDS011;65232;48.358;2.122;2023-01-30T00:11:05;21.52;;;13.10;;
76403;SDS011;65232;48.358;2.122;2023-01-30T00:11:32;17.50;;;13.27;;
76403;SDS011;65232;48.358;2.122;2023-01-30T00:11:57;19.77;;;13.40;;
76403;SDS011;65232;48.358;2.122;2023-01-30T00:12:23;21.35;;;13.68;;
76403;SDS011;65232;48.358;2.122;2023-01-30T00:12:48;18.80;;;13.27;;
76403;SDS011;65232;48.358;2.122;2023-01-30T00:13:14;18.48;;;12.82;;
76403;SDS011;65232;48.358;2.122;2023-01-30T00:13:40;19.77;;;13.93;;
76403;SDS011;65232;48.358;2.122;2023-01-30T00:14:07;21.48;;;13.77;;
76403;SDS011;65232;48.358;2.122;2023-01-30T00:14:32;19.13;;;13.30;;
76403;SDS011;65232;48.358;2.122;2023-01-30T00:14:58;20.55;;;13.50;;
76403;SDS011;65232;48.358;2.122;2023-01-30T00:15:23;21.15;;;13.30;;
76403;SDS011;65232;48.358;2.122;2023-01-30T00:15:49;20.77;;;14.00;;
76403;SDS011;65232;48.358;2.122;2023-01-30T00:16:14;20.38;;;13.52;;
76403;SDS011;65232;48.358;2.122;2023-01-30T00:16:40;19.52;;;14.32;;
76403;SDS011;65232;48.358;2.122;2023-01-30T00:17:06;20.67;;;13.68;;
76403;SDS011;65232;48.358;2.122;2023-01-30T00:17:32;20.10;;;13.05;;
76403;SDS011;65232;48.358;2.122;2023-01-30T00:17:57;21.27;;;14.40;;
76403;SDS011;65232;48.358;2.122;2023-01-30T00:18:23;20.35;;;13.25;;
76403;SDS011;65232;48.358;2.122;2023-01-30T00:18:48;20.85;;;14.23;;
76403;SDS011;65232;48.358;2.122;2023-01-30T00:19:14;21.65;;;14.25;;
76403;SDS011;65232;48.358;2.122;2023-01-30T00:19:40;24.13;;;14.90;;
76403;SDS011;65232;48.358;2.122;2023-01-30T00:20:05;19.88;;;14.32;;
76403;SDS011;65232;48.358;2.122;2023-01-30T00:20:31;21.35;;;14.55;;
76403;SDS011;65232;48.358;2.122;2023-01-30T00:20:58;20.52;;;13.88;;
76403;SDS011;65232;48.358;2.122;2023-01-30T00:21:26;22.70;;;13.48;;
76403;SDS011;65232;48.358;2.122;2023-01-30T00:21:51;18.95;;;12.90;;
76403;SDS011;65232;48.358;2.122;2023-01-30T00:22:17;24.33;;;14.77;;
76403;SDS011;65232;48.358;2.122;2023-01-30T00:22:42;20.25;;;14.15;;
76403;SDS011;65232;48.358;2.122;2023-01-30T00:23:08;20.38;;;13.50;;
76403;SDS011;65232;48.358;2.122;2023-01-30T00:23:34;22.92;;;13.80;;
76403;SDS011;65232;48.358;2.122;2023-01-30T00:24:00;24.13;;;14.38;;
76403;SDS011;65232;48.358;2.122;2023-01-30T00:24:26;19.65;;;13.13;;
76403;SDS011;65232;48.358;2.122;2023-01-30T00:24:51;19.58;;;13.50;;
76403;SDS011;65232;48.358;2.122;2023-01-30T00:25:16;20.50;;;13.43;;
76403;SDS011;65232;48.358;2.122;2023-01-30T00:25:44;24.08;;;15.00;;
76403;SDS011;65232;48.358;2.122;2023-01-30T00:26:10;21.10;;;13.90;;
76403;SDS011;65232;48.358;2.122;2023-01-30T00:26:37;20.95;;;13.00;;
76403;SDS011;65232;48.358;2.122;2023-01-30T00:27:02;21.65;;;14.00;;
76403;SDS011;65232;48.358;2.122;2023-01-30T00:27:28;19.83;;;13.82;;
76403;SDS011;65232;48.358;2.122;2023-01-30T00:27:54;20.67;;;14.15;;
76403;SDS011;65232;48.358;2.122;2023-01-30T00:28:21;18.45;;;14.10;;
76403;SDS011;65232;48.358;2.122;2023-01-30T00:28:47;21.80;;;13.52;;
76403;SDS011;65232;48.358;2.122;2023-01-30T00:29:12;20.95;;;14.02;;
76403;SDS011;65232;48.358;2.122;2023-01-30T00:29:38;21.30;;;13.68;;
76403;SDS011;65232;48.358;2.122;2023-01-30T00:30:03;22.73;;;14.77;;
76403;SDS011;65232;48.358;2.122;2023-01-30T00:30:31;19.75;;;13.43;;
76403;SDS011;65232;48.358;2.122;2023-01-30T00:30:56;22.15;;;13.77;;
76403;SDS011;65232;48.358;2.122;2023-01-30T00:31:22;20.55;;;13.90;;
76403;SDS011;65232;48.358;2.122;2023-01-30T00:31:48;22.45;;;13.88;;
76403;SDS011;65232;48.358;2.122;2023-01-30T00:32:15;22.50;;;14.65;;
76403;SDS011;65232;48.358;2.122;2023-01-30T00:32:40;21.10;;;13.70;;
76403;SDS011;65232;48.358;2.122;2023-01-30T00:33:06;21.10;;;14.52;;
76403;SDS011;65232;48.358;2.122;2023-01-30T00:33:32;20.58;;;13.82;;
76403;SDS011;65232;48.358;2.122;2023-01-30T00:33:57;20.98;;;13.82;;
76403;SDS011;65232;48.358;2.122;2023-01-30T00:34:23;22.27;;;13.98;;
76403;SDS011;65232;48.358;2.122;2023-01-30T00:34:48;23.67;;;14.32;;
76403;SDS011;65232;48.358;2.122;2023-01-30T00:35:14;19.15;;;13.40;;
76403;SDS011;65232;48.358;2.122;2023-01-30T00:35:43;21.17;;;12.98;;
76403;SDS011;65232;48.358;2.122;2023-01-30T00:36:09;24.83;;;14.35;;
76403;SDS011;65232;48.358;2.122;2023-01-30T00:36:36;20.73;;;14.02;;
76403;SDS011;65232;48.358;2.122;2023-01-30T00:37:01;18.90;;;12.95;;
76403;SDS011;65232;48.358;2.122;2023-01-30T00:37:27;20.88;;;14.20;;
76403;SDS011;65232;48.358;2.122;2023-01-30T00:37:55;20.80;;;14.30;;
76403;SDS011;65232;48.358;2.122;2023-01-30T00:38:22;23.77;;;14.30;;
76403;SDS011;65232;48.358;2.122;2023-01-30T00:38:48;20.83;;;13.50;;
76403;SDS011;65232;48.358;2.122;2023-01-30T00:39:15;21.02;;;13.95;;
76403;SDS011;65232;48.358;2.122;2023-01-30T00:39:41;24.52;;;13.77;;
76403;SDS011;65232;48.358;2.122;2023-01-30T00:40:06;21.65;;;14.45;;
76403;SDS011;65232;48.358;2.122;2023-01-30T00:40:32;21.77;;;13.35;;
76403;SDS011;65232;48.358;2.122;2023-01-30T00:40:58;22.65;;;13.48;;
76403;SDS011;65232;48.358;2.122;2023-01-30T00:41:23;20.10;;;13.48;;
76403;SDS011;65232;48.358;2.122;2023-01-30T00:42:09;21.10;;;12.35;;
76403;SDS011;65232;48.358;2.122;2023-01-30T00:42:53;20.80;;;12.75;;
76403;SDS011;65232;48.358;2.122;2023-01-30T00:43:38;20.58;;;12.48;;
76403;SDS011;65232;48.358;2.122;2023-01-30T00:44:22;20.55;;;12.20;;
76403;SDS011;65232;48.358;2.122;2023-01-30T00:45:08;18.85;;;11.40;;
76403;SDS011;65232;48.358;2.122;2023-01-30T00:45:54;19.58;;;11.98;;
76403;SDS011;65232;48.358;2.122;2023-01-30T00:46:38;17.52;;;11.23;;
76403;SDS011;65232;48.358;2.122;2023-01-30T00:47:24;18.75;;;10.90;;
76403;SDS011;65232;48.358;2.122;2023-01-30T00:47:52;19.63;;;12.68;;
76403;SDS011;65232;48.358;2.122;2023-01-30T00:48:17;19.77;;;12.73;;
76403;SDS011;65232;48.358;2.122;2023-01-30T00:48:43;17.63;;;11.75;;
76403;SDS011;65232;48.358;2.122;2023-01-30T00:49:08;19.55;;;13.55;;
76403;SDS011;65232;48.358;2.122;2023-01-30T00:49:34;17.90;;;12.60;;
76403;SDS011;65232;48.358;2.122;2023-01-30T00:50:01;22.45;;;14.25;;
76403;SDS011;65232;48.358;2.122;2023-01-30T00:50:27;19.77;;;13.40;;
76403;SDS011;65232;48.358;2.122;2023-01-30T00:51:06;19.98;;;13.40;;
76403;SDS011;65232;48.358;2.122;2023-01-30T00:51:31;20.73;;;13.30;;
76403;SDS011;65232;48.358;2.122;2023-01-30T00:51:57;20.30;;;13.77;;
76403;SDS011;65232;48.358;2.122;2023-01-30T00:52:23;20.45;;;13.80;;
76403;SDS011;65232;48.358;2.122;2023-01-30T00:52:49;21.65;;;14.30;;
76403;SDS011;65232;48.358;2.122;2023-01-30T00:53:16;20.40;;;14.45;;
76403;SDS011;65232;48.358;2.122;2023-01-30T00:53:41;23.42;;;13.70;;
76403;SDS011;65232;48.358;2.122;2023-01-30T00:54:07;21.60;;;14.23;;
76403;SDS011;65232;48.358;2.122;2023-01-30T00:54:32;19.45;;;13.10;;
76403;SDS011;65232;48.358;2.122;2023-01-30T00:54:58;22.48;;;14.68;;
76403;SDS011;65232;48.358;2.122;2023-01-30T00:55:24;21.40;;;14.30;;
76403;SDS011;65232;48.358;2.122;2023-01-30T00:55:50;21.52;;;13.85;;
76403;SDS011;65232;48.358;2.122;2023-01-30T00:56:16;22.00;;;14.50;;
76403;SDS011;65232;48.358;2.122;2023-01-30T00:56:41;19.98;;;13.43;;
76403;SDS011;65232;48.358;2.122;2023-01-30T00:57:07;18.73;;;13.57;;
76403;SDS011;65232;48.358;2.122;2023-01-30T00:57:32;20.55;;;13.65;;
76403;SDS011;65232;48.358;2.122;2023-01-30T00:57:58;22.20;;;14.55;;
76403;SDS011;65232;48.358;2.122;2023-01-30T00:58:23;22.17;;;13.90;;
76403;SDS011;65232;48.358;2.122;2023-01-30T00:58:49;20.40;;;13.57;;
76403;SDS011;65232;48.358;2.122;2023-01-30T00:59:15;20.17;;;13.50;;
76403;SDS011;65232;48.358;2.122;2023-01-30T00:59:40;21.98;;;14.20;;
76403;SDS011;65232;48.358;2.122;2023-01-30T01:00:06;19.80;;;14.02;;
76403;SDS011;65232;48.358;2.122;2023-01-30T01:00:33;21.02;;;13.60;;
76403;SDS011;65232;48.358;2.122;2023-01-30T01:00:59;20.52;;;13.38;;
76403;SDS011;65232;48.358;2.122;2023-01-30T01:01:24;19.88;;;13.85;;
76403;SDS011;65232;48.358;2.122;2023-01-30T01:01:50;21.15;;;13.75;;
76403;SDS011;65232;48.358;2.122;2023-01-30T01:02:15;21.63;;;14.23;;
76403;SDS011;65232;48.358;2.122;2023-01-30T01:02:41;21.88;;;14.77;;
76403;SDS011;65232;48.358;2.122;2023-01-30T01:03:06;20.85;;;13.18;;
76403;SDS011;65232;48.358;2.122;2023-01-30T01:03:32;19.77;;;13.70;;
76403;SDS011;65232;48.358;2.122;2023-01-30T01:04:24;21.92;;;13.20;;
76403;SDS011;65232;48.358;2.122;2023-01-30T01:04:49;22.50;;;14.38;;
76403;SDS011;65232;48.358;2.122;2023-01-30T01:05:16;19.58;;;13.45;;
76403;SDS011;65232;48.358;2.122;2023-01-30T01:05:42;21.92;;;13.50;;
76403;SDS011;65232;48.358;2.122;2023-01-30T01:06:33;18.50;;;12.20;;
76403;SDS011;65232;48.358;2.122;2023-01-30T01:06:59;21.55;;;14.18;;
76403;SDS011;65232;48.358;2.122;2023-01-30T01:07:24;22.50;;;14.07;;
76403;SDS011;65232;48.358;2.122;2023-01-30T01:07:50;20.52;;;13.45;;
76403;SDS011;65232;48.358;2.122;2023-01-30T01:08:15;21.17;;;14.77;;
76403;SDS011;65232;48.358;2.122;2023-01-30T01:08:41;24.80;;;15.18;;
76403;SDS011;65232;48.358;2.122;2023-01-30T01:09:06;21.23;;;13.95;;
76403;SDS011;65232;48.358;2.122;2023-01-30T01:09:32;19.45;;;13.68;;
76403;SDS011;65232;48.358;2.122;2023-01-30T01:09:57;21.23;;;13.95;;
76403;SDS011;65232;48.358;2.122;2023-01-30T01:10:23;21.95;;;14.02;;
76403;SDS011;65232;48.358;2.122;2023-01-30T01:10:49;23.15;;;14.38;;
76403;SDS011;65232;48.358;2.122;2023-01-30T01:11:14;23.05;;;14.38;;
76403;SDS011;65232;48.358;2.122;2023-01-30T01:11:48;21.20;;;14.32;;
76403;SDS011;65232;48.358;2.122;2023-01-30T01:12:13;20.88;;;14.32;;
76403;SDS011;65232;48.358;2.122;2023-01-30T01:12:39;20.63;;;13.77;;
76403;SDS011;65232;48.358;2.122;2023-01-30T01:13:04;23.55;;;14.55;;
76403;SDS011;65232;48.358;2.122;2023-01-30T01:13:34;21.02;;;14.10;;
76403;SDS011;65232;48.358;2.122;2023-01-30T01:14:00;28.15;;;14.68;;
76403;SDS011;65232;48.358;2.122;2023-01-30T01:14:27;21.98;;;13.05;;
76403;SDS011;65232;48.358;2.122;2023-01-30T01:14:52;20.13;;;14.52;;
76403;SDS011;65232;48.358;2.122;2023-01-30T01:15:18;23.08;;;14.45;;
76403;SDS011;65232;48.358;2.122;2023-01-30T01:15:46;23.33;;;14.48;;
76403;SDS011;65232;48.358;2.122;2023-01-30T01:16:12;21.00;;;14.55;;
76403;SDS011;65232;48.358;2.122;2023-01-30T01:16:37;23.02;;;14.20;;
76403;SDS011;65232;48.358;2.122;2023-01-30T01:17:03;21.42;;;13.90;;
76403;SDS011;65232;48.358;2.122;2023-01-30T01:17:28;22.75;;;14.93;;
76403;SDS011;65232;48.358;2.122;2023-01-30T01:17:54;21.15;;;14.38;;
76403;SDS011;65232;48.358;2.122;2023-01-30T01:18:20;23.40;;;14.23;;
76403;SDS011;65232;48.358;2.122;2023-01-30T01:18:45;22.40;;;14.32;;
76403;SDS011;65232;48.358;2.122;2023-01-30T01:19:11;22.98;;;15.18;;
76403;SDS011;65232;48.358;2.122;2023-01-30T01:19:39;22.75;;;14.40;;
76403;SDS011;65232;48.358;2.122;2023-01-30T01:20:05;22.33;;;13.68;;
76403;SDS011;65232;48.358;2.122;2023-01-30T01:20:31;21.30;;;14.50;;
76403;SDS011;65232;48.358;2.122;2023-01-30T01:20:57;23.45;;;15.27;;
76403;SDS011;65232;48.358;2.122;2023-01-30T01:21:22;24.95;;;14.40;;
76403;SDS011;65232;48.358;2.122;2023-01-30T01:21:48;22.58;;;14.13;;
76403;SDS011;65232;48.358;2.122;2023-01-30T01:22:13;20.90;;;14.10;;
76403;SDS011;65232;48.358;2.122;2023-01-30T01:22:39;22.85;;;14.70;;
76403;SDS011;65232;48.358;2.122;2023-01-30T01:23:04;21.73;;;14.15;;
76403;SDS011;65232;48.358;2.122;2023-01-30T01:23:30;22.25;;;15.07;;
76403;SDS011;65232;48.358;2.122;2023-01-30T01:23:56;23.42;;;15.18;;
76403;SDS011;65232;48.358;2.122;2023-01-30T01:24:24;23.83;;;13.38;;
76403;SDS011;65232;48.358;2.122;2023-01-30T01:24:49;23.90;;;15.25;;
76403;SDS011;65232;48.358;2.122;2023-01-30T01:25:15;22.85;;;14.40;;
76403;SDS011;65232;48.358;2.122;2023-01-30T01:25:40;22.02;;;15.55;;
76403;SDS011;65232;48.358;2.122;2023-01-30T01:26:06;23.25;;;14.50;;
76403;SDS011;65232;48.358;2.122;2023-01-30T01:26:33;23.67;;;14.57;;
76403;SDS011;65232;48.358;2.122;2023-01-30T01:26:58;22.35;;;14.32;;
76403;SDS011;65232;48.358;2.122;2023-01-30T01:27:24;21.30;;;14.77;;
76403;SDS011;65232;48.358;2.122;2023-01-30T01:27:49;24.58;;;15.07;;
76403;SDS011;65232;48.358;2.122;2023-01-30T01:28:15;23.13;;;15.40;;
76403;SDS011;65232;48.358;2.122;2023-01-30T01:28:45;22.80;;;14.40;;
76403;SDS011;65232;48.358;2.122;2023-01-30T01:29:12;25.92;;;15.55;;
76403;SDS011;65232;48.358;2.122;2023-01-30T01:29:38;22.05;;;14.07;;
76403;SDS011;65232;48.358;2.122;2023-01-30T01:30:04;26.52;;;15.15;;
76403;SDS011;65232;48.358;2.122;2023-01-30T01:30:30;22.60;;;14.00;;
76403;SDS011;65232;48.358;2.122;2023-01-30T01:30:56;20.67;;;14.63;;
76403;SDS011;65232;48.358;2.122;2023-01-30T01:31:21;24.83;;;15.10;;
76403;SDS011;65232;48.358;2.122;2023-01-30T01:32:14;20.33;;;12.73;;
76403;SDS011;65232;48.358;2.122;2023-01-30T01:32:40;20.60;;;12.38;;
76403;SDS011;65232;48.358;2.122;2023-01-30T01:33:07;21.42;;;13.43;;
76403;SDS011;65232;48.358;2.122;2023-01-30T01:33:33;21.95;;;13.65;;
76403;SDS011;65232;48.358;2.122;2023-01-30T01:33:58;22.00;;;14.43;;
76403;SDS011;65232;48.358;2.122;2023-01-30T01:34:24;21.23;;;13.82;;
76403;SDS011;65232;48.358;2.122;2023-01-30T01:34:49;24.00;;;14.80;;
76403;SDS011;65232;48.358;2.122;2023-01-30T01:35:15;23.75;;;15.27;;
76403;SDS011;65232;48.358;2.122;2023-01-30T01:35:40;22.13;;;13.98;;
76403;SDS011;65232;48.358;2.122;2023-01-30T01:36:06;24.92;;;15.88;;
76403;SDS011;65232;48.358;2.122;2023-01-30T01:36:32;23.13;;;14.75;;
76403;SDS011;65232;48.358;2.122;2023-01-30T01:36:58;23.25;;;15.00;;
76403;SDS011;65232;48.358;2.122;2023-01-30T01:37:24;22.67;;;14.90;;
76403;SDS011;65232;48.358;2.122;2023-01-30T01:37:52;22.48;;;15.25;;
76403;SDS011;65232;48.358;2.122;2023-01-30T01:38:18;22.60;;;15.15;;
76403;SDS011;65232;48.358;2.122;2023-01-30T01:38:44;25.40;;;14.88;;
76403;SDS011;65232;48.358;2.122;2023-01-30T01:39:09;23.35;;;15.40;;
76403;SDS011;65232;48.358;2.122;2023-01-30T01:39:35;23.98;;;15.50;;
76403;SDS011;65232;48.358;2.122;2023-01-30T01:40:19;22.58;;;14.48;;
76403;SDS011;65232;48.358;2.122;2023-01-30T01:41:05;21.98;;;13.25;;
76403;SDS011;65232;48.358;2.122;2023-01-30T01:41:33;22.70;;;14.18;;
76403;SDS011;65232;48.358;2.122;2023-01-30T01:42:01;21.63;;;14.05;;
76403;SDS011;65232;48.358;2.122;2023-01-30T01:42:32;21.65;;;14.23;;
76403;SDS011;65232;48.358;2.122;2023-01-30T01:43:00;22.75;;;14.40;;
76403;SDS011;65232;48.358;2.122;2023-01-30T01:43:25;22.70;;;14.32;;
76403;SDS011;65232;48.358;2.122;2023-01-30T01:43:58;21.77;;;14.10;;
76403;SDS011;65232;48.358;2.122;2023-01-30T01:44:26;22.50;;;14.23;;
76403;SDS011;65232;48.358;2.122;2023-01-30T01:45:38;22.40;;;13.85;;
76403;SDS011;65232;48.358;2.122;2023-01-30T01:46:19;22.10;;;14.13;;
76403;SDS011;65232;48.358;2.122;2023-01-30T01:46:55;22.70;;;13.38;;
76403;SDS011;65232;48.358;2.122;2023-01-30T01:47:23;19.13;;;12.52;;
76403;SDS011;65232;48.358;2.122;2023-01-30T01:48:40;23.02;;;12.98;;
76403;SDS011;65232;48.358;2.122;2023-01-30T01:49:20;20.60;;;13.25;;
76403;SDS011;65232;48.358;2.122;2023-01-30T01:49:48;20.77;;;13.25;;
76403;SDS011;65232;48.358;2.122;2023-01-30T01:50:18;22.27;;;14.10;;
76403;SDS011;65232;48.358;2.122;2023-01-30T01:50:52;21.05;;;13.13;;
76403;SDS011;65232;48.358;2.122;2023-01-30T01:51:56;20.35;;;13.80;;
76403;SDS011;65232;48.358;2.122;2023-01-30T01:52:23;21.00;;;13.77;;
76403;SDS011;65232;48.358;2.122;2023-01-30T01:52:49;21.88;;;14.18;;
76403;SDS011;65232;48.358;2.122;2023-01-30T01:53:20;24.05;;;14.63;;
76403;SDS011;65232;48.358;2.122;2023-01-30T01:53:58;22.35;;;15.07;;
76403;SDS011;65232;48.358;2.122;2023-01-30T01:55:16;20.55;;;13.57;;
76403;SDS011;65232;48.358;2.122;2023-01-30T01:55:43;21.20;;;13.80;;
76403;SDS011;65232;48.358;2.122;2023-01-30T01:56:14;23.63;;;14.77;;
76403;SDS011;65232;48.358;2.122;2023-01-30T01:56:43;21.55;;;13.25;;
76403;SDS011;65232;48.358;2.122;2023-01-30T01:57:14;23.10;;;13.93;;
76403;SDS011;65232;48.358;2.122;2023-01-30T01:57:49;25.67;;;13.52;;
76403;SDS011;65232;48.358;2.122;2023-01-30T01:58:22;23.13;;;14.40;;
76403;SDS011;65232;48.358;2.122;2023-01-30T01:59:02;22.85;;;13.52;;
76403;SDS011;65232;48.358;2.122;2023-01-30T01:59:34;20.02;;;12.57;;
76403;SDS011;65232;48.358;2.122;2023-01-30T02:00:11;23.05;;;14.38;;
76403;SDS011;65232;48.358;2.122;2023-01-30T02:00:39;23.48;;;13.93;;
76403;SDS011;65232;48.358;2.122;2023-01-30T02:01:05;25.15;;;14.70;;
76403;SDS011;65232;48.358;2.122;2023-01-30T02:01:31;22.95;;;15.02;;
76403;SDS011;65232;48.358;2.122;2023-01-30T02:01:59;24.70;;;14.68;;
76403;SDS011;65232;48.358;2.122;2023-01-30T02:02:27;22.42;;;14.52;;
76403;SDS011;65232;48.358;2.122;2023-01-30T02:02:56;23.75;;;15.30;;
76403;SDS011;65232;48.358;2.122;2023-01-30T02:03:24;21.85;;;14.15;;
76403;SDS011;65232;48.358;2.122;2023-01-30T02:03:53;23.20;;;15.13;;
76403;SDS011;65232;48.358;2.122;2023-01-30T02:04:22;20.40;;;14.40;;
76403;SDS011;65232;48.358;2.122;2023-01-30T02:05:09;20.20;;;13.32;;
76403;SDS011;65232;48.358;2.122;2023-01-30T02:05:40;23.33;;;14.73;;
76403;SDS011;65232;48.358;2.122;2023-01-30T02:06:08;22.35;;;14.48;;
76403;SDS011;65232;48.358;2.122;2023-01-30T02:06:36;22.15;;;12.80;;
76403;SDS011;65232;48.358;2.122;2023-01-30T02:07:04;21.70;;;14.02;;
76403;SDS011;65232;48.358;2.122;2023-01-30T02:07:34;24.92;;;14.65;;
76403;SDS011;65232;48.358;2.122;2023-01-30T02:09:04;22.13;;;13.45;;
76403;SDS011;65232;48.358;2.122;2023-01-30T02:09:33;21.83;;;13.45;;
76403;SDS011;65232;48.358;2.122;2023-01-30T02:09:59;21.90;;;13.93;;
76403;SDS011;65232;48.358;2.122;2023-01-30T02:11:08;21.15;;;14.27;;
76403;SDS011;65232;48.358;2.122;2023-01-30T02:11:58;20.20;;;12.98;;
76403;SDS011;65232;48.358;2.122;2023-01-30T02:12:27;21.25;;;13.00;;
76403;SDS011;65232;48.358;2.122;2023-01-30T02:12:53;20.48;;;13.57;;
76403;SDS011;65232;48.358;2.122;2023-01-30T02:13:20;21.73;;;13.98;;
76403;SDS011;65232;48.358;2.122;2023-01-30T02:13:46;20.20;;;12.85;;
76403;SDS011;65232;48.358;2.122;2023-01-30T02:14:13;22.60;;;14.57;;
76403;SDS011;65232;48.358;2.122;2023-01-30T02:14:40;21.30;;;13.60;;
76403;SDS011;65232;48.358;2.122;2023-01-30T02:15:08;21.15;;;13.75;;
76403;SDS011;65232;48.358;2.122;2023-01-30T02:15:33;23.35;;;14.85;;
76403;SDS011;65232;48.358;2.122;2023-01-30T02:16:00;21.77;;;14.52;;
76403;SDS011;65232;48.358;2.122;2023-01-30T02:16:26;24.10;;;14.43;;
76403;SDS011;65232;48.358;2.122;2023-01-30T02:16:52;23.33;;;15.05;;
76403;SDS011;65232;48.358;2.122;2023-01-30T02:17:17;21.85;;;13.85;;
76403;SDS011;65232;48.358;2.122;2023-01-30T02:17:44;24.30;;;14.52;;
76403;SDS011;65232;48.358;2.122;2023-01-30T02:18:10;20.65;;;13.30;;
76403;SDS011;65232;48.358;2.122;2023-01-30T02:18:38;23.33;;;14.73;;
76403;SDS011;65232;48.358;2.122;2023-01-30T02:19:07;22.58;;;14.32;;
76403;SDS011;65232;48.358;2.122;2023-01-30T02:20:31;20.27;;;13.45;;
76403;SDS011;65232;48.358;2.122;2023-01-30T02:24:55;20.48;;;12.23;;
76403;SDS011;65232;48.358;2.122;2023-01-30T02:25:39;18.98;;;12.57;;
76403;SDS011;65232;48.358;2.122;2023-01-30T02:27:07;20.38;;;12.77;;
76403;SDS011;65232;48.358;2.122;2023-01-30T02:31:45;20.13;;;11.95;;
76403;SDS011;65232;48.358;2.122;2023-01-30T02:33:51;20.30;;;12.20;;
76403;SDS011;65232;48.358;2.122;2023-01-30T02:36:15;20.20;;;11.80;;
76403;SDS011;65232;48.358;2.122;2023-01-30T02:37:57;16.88;;;10.77;;
76403;SDS011;65232;48.358;2.122;2023-01-30T02:38:43;21.02;;;11.88;;
76403;SDS011;65232;48.358;2.122;2023-01-30T02:39:31;17.98;;;12.00;;
76403;SDS011;65232;48.358;2.122;2023-01-30T02:41:24;20.70;;;11.65;;
76403;SDS011;65232;48.358;2.122;2023-01-30T02:43:50;20.15;;;12.55;;
76403;SDS011;65232;48.358;2.122;2023-01-30T02:44:57;20.10;;;12.43;;
76403;SDS011;65232;48.358;2.122;2023-01-30T02:46:07;20.70;;;13.25;;
76403;SDS011;65232;48.358;2.122;2023-01-30T02:48:41;18.30;;;11.40;;
76403;SDS011;65232;48.358;2.122;2023-01-30T02:49:28;18.80;;;11.35;;
76403;SDS011;65232;48.358;2.122;2023-01-30T02:50:06;17.75;;;11.55;;
76403;SDS011;65232;48.358;2.122;2023-01-30T02:50:39;20.42;;;12.50;;
76403;SDS011;65232;48.358;2.122;2023-01-30T02:51:23;20.42;;;12.07;;
76403;SDS011;65232;48.358;2.122;2023-01-30T02:51:53;21.73;;;13.02;;
76403;SDS011;65232;48.358;2.122;2023-01-30T02:52:22;20.55;;;13.57;;
76403;SDS011;65232;48.358;2.122;2023-01-30T02:52:49;23.38;;;13.32;;
76403;SDS011;65232;48.358;2.122;2023-01-30T02:53:16;20.65;;;13.25;;
76403;SDS011;65232;48.358;2.122;2023-01-30T02:53:41;21.48;;;13.73;;
76403;SDS011;65232;48.358;2.122;2023-01-30T02:54:09;20.63;;;13.18;;
76403;SDS011;65232;48.358;2.122;2023-01-30T02:54:36;21.65;;;13.57;;
76403;SDS011;65232;48.358;2.122;2023-01-30T02:55:35;20.23;;;13.82;;
76403;SDS011;65232;48.358;2.122;2023-01-30T02:55:54;17.95;;;11.27;;
76403;SDS011;65232;48.358;2.122;2023-01-30T02:56:20;20.38;;;13.27;;
76403;SDS011;65232;48.358;2.122;2023-01-30T02:56:47;22.27;;;14.38;;
76403;SDS011;65232;48.358;2.122;2023-01-30T02:57:18;21.25;;;13.20;;
76403;SDS011;65232;48.358;2.122;2023-01-30T02:57:51;22.33;;;13.65;;
76403;SDS011;65232;48.358;2.122;2023-01-30T02:58:18;22.17;;;13.35;;
76403;SDS011;65232;48.358;2.122;2023-01-30T02:58:48;20.48;;;13.00;;
76403;SDS011;65232;48.358;2.122;2023-01-30T02:59:58;23.83;;;13.10;;
76403;SDS011;65232;48.358;2.122;2023-01-30T03:07:31;18.38;;;11.57;;
76403;SDS011;65232;48.358;2.122;2023-01-30T03:10:57;20.77;;;12.45;;
76403;SDS011;65232;48.358;2.122;2023-01-30T03:11:27;23.90;;;12.40;;
76403;SDS011;65232;48.358;2.122;2023-01-30T03:14:01;22.48;;;12.10;;
76403;SDS011;65232;48.358;2.122;2023-01-30T03:14:54;20.95;;;13.05;;
76403;SDS011;65232;48.358;2.122;2023-01-30T03:15:27;21.95;;;12.93;;
76403;SDS011;65232;48.358;2.122;2023-01-30T03:16:02;20.35;;;12.45;;
76403;SDS011;65232;48.358;2.122;2023-01-30T03:16:37;20.30;;;12.88;;
76403;SDS011;65232;48.358;2.122;2023-01-30T03:17:04;20.48;;;13.27;;
76403;SDS011;65232;48.358;2.122;2023-01-30T03:17:31;20.58;;;13.38;;
76403;SDS011;65232;48.358;2.122;2023-01-30T03:17:58;21.20;;;14.10;;
76403;SDS011;65232;48.358;2.122;2023-01-30T03:18:23;22.77;;;14.35;;
76403;SDS011;65232;48.358;2.122;2023-01-30T03:18:50;27.50;;;14.38;;
76403;SDS011;65232;48.358;2.122;2023-01-30T03:19:16;21.70;;;14.00;;
76403;SDS011;65232;48.358;2.122;2023-01-30T03:19:45;23.08;;;14.63;;
76403;SDS011;65232;48.358;2.122;2023-01-30T03:20:11;25.27;;;14.75;;
76403;SDS011;65232;48.358;2.122;2023-01-30T03:20:39;21.48;;;15.05;;
76403;SDS011;65232;48.358;2.122;2023-01-30T03:21:05;22.80;;;14.40;;
76403;SDS011;65232;48.358;2.122;2023-01-30T03:21:32;24.30;;;14.93;;
76403;SDS011;65232;48.358;2.122;2023-01-30T03:21:58;21.23;;;14.07;;
76403;SDS011;65232;48.358;2.122;2023-01-30T03:22:50;23.05;;;13.57;;
76403;SDS011;65232;48.358;2.122;2023-01-30T03:23:18;21.88;;;13.15;;
76403;SDS011;65232;48.358;2.122;2023-01-30T03:23:44;22.17;;;13.98;;
76403;SDS011;65232;48.358;2.122;2023-01-30T03:24:13;22.90;;;14.00;;
76403;SDS011;65232;48.358;2.122;2023-01-30T03:24:39;24.27;;;14.77;;
76403;SDS011;65232;48.358;2.122;2023-01-30T03:25:04;22.77;;;14.90;;